sensor_id;sensor_type;location;lat;lon;timestamp;temperature;humidity
51908;DHT22;39320;53.214;6.556;2023-07-20T00:02:01;17.90;99.90
51908;DHT22;39320;53.214;6.556;2023-07-20T00:04:28;17.90;99.90
51908;DHT22;39320;53.214;6.556;2023-07-20T00:06:54;17.90;99.90
51908;DHT22;39320;53.214;6.556;2023-07-20T00:09:20;17.80;99.90
51908;DHT22;39320;53.214;6.556;2023-07-20T00:11:51;17.80;99.90
51908;DHT22;39320;53.214;6.556;2023-07-20T00:14:17;17.80;99.90
51908;DHT22;39320;53.214;6.556;2023-07-20T00:16:44;17.80;99.90
51908;DHT22;39320;53.214;6.556;2023-07-20T00:19:12;17.80;99.90
51908;DHT22;39320;53.214;6.556;2023-07-20T00:21:38;17.70;99.90
51908;DHT22;39320;53.214;6.556;2023-07-20T00:24:06;17.70;99.90
51908;DHT22;39320;53.214;6.556;2023-07-20T00:26:31;17.70;99.90
51908;DHT22;39320;53.214;6.556;2023-07-20T00:28:57;17.70;99.90
51908;DHT22;39320;53.214;6.556;2023-07-20T00:31:23;17.70;99.90
51908;DHT22;39320;53.214;6.556;2023-07-20T00:33:49;17.70;99.90
51908;DHT22;39320;53.214;6.556;2023-07-20T00:36:14;17.70;99.90
51908;DHT22;39320;53.214;6.556;2023-07-20T00:38:41;17.60;99.90
51908;DHT22;39320;53.214;6.556;2023-07-20T00:41:07;17.60;99.90
51908;DHT22;39320;53.214;6.556;2023-07-20T00:43:33;17.60;99.90
51908;DHT22;39320;53.214;6.556;2023-07-20T00:45:59;17.70;99.90
51908;DHT22;39320;53.214;6.556;2023-07-20T00:48:25;17.60;99.90
51908;DHT22;39320;53.214;6.556;2023-07-20T00:50:51;17.60;99.90
51908;DHT22;39320;53.214;6.556;2023-07-20T00:53:17;17.60;99.90
51908;DHT22;39320;53.214;6.556;2023-07-20T00:55:42;17.60;99.90
51908;DHT22;39320;53.214;6.556;2023-07-20T00:58:08;17.60;99.90
51908;DHT22;39320;53.214;6.556;2023-07-20T01:00:34;17.50;99.90
51908;DHT22;39320;53.214;6.556;2023-07-20T01:03:00;17.60;99.90
51908;DHT22;39320;53.214;6.556;2023-07-20T01:10:55;17.60;99.90
51908;DHT22;39320;53.214;6.556;2023-07-20T01:13:23;17.60;99.90
51908;DHT22;39320;53.214;6.556;2023-07-20T01:15:56;17.50;99.90
51908;DHT22;39320;53.214;6.556;2023-07-20T01:18:23;17.50;99.90
51908;DHT22;39320;53.214;6.556;2023-07-20T01:20:49;17.50;99.90
51908;DHT22;39320;53.214;6.556;2023-07-20T01:32:02;17.40;99.90
51908;DHT22;39320;53.214;6.556;2023-07-20T01:34:30;17.40;99.90
51908;DHT22;39320;53.214;6.556;2023-07-20T01:36:57;17.40;99.90
51908;DHT22;39320;53.214;6.556;2023-07-20T01:39:23;17.40;99.90
51908;DHT22;39320;53.214;6.556;2023-07-20T01:41:49;17.40;99.90
51908;DHT22;39320;53.214;6.556;2023-07-20T01:44:15;17.30;99.90
51908;DHT22;39320;53.214;6.556;2023-07-20T01:46:41;17.30;99.90
51908;DHT22;39320;53.214;6.556;2023-07-20T01:49:07;17.30;99.90
51908;DHT22;39320;53.214;6.556;2023-07-20T01:51:33;17.40;99.90
51908;DHT22;39320;53.214;6.556;2023-07-20T01:53:58;17.30;99.90
51908;DHT22;39320;53.214;6.556;2023-07-20T01:56:25;17.30;99.90
51908;DHT22;39320;53.214;6.556;2023-07-20T01:58:51;17.30;99.90
51908;DHT22;39320;53.214;6.556;2023-07-20T02:01:16;17.30;99.90
51908;DHT22;39320;53.214;6.556;2023-07-20T02:03:42;17.30;99.90
51908;DHT22;39320;53.214;6.556;2023-07-20T02:06:11;17.30;99.90
51908;DHT22;39320;53.214;6.556;2023-07-20T02:08:37;17.30;99.90
51908;DHT22;39320;53.214;6.556;2023-07-20T02:11:26;17.30;99.90
51908;DHT22;39320;53.214;6.556;2023-07-20T02:13:54;17.30;99.90
51908;DHT22;39320;53.214;6.556;2023-07-20T02:16:20;17.30;99.90
51908;DHT22;39320;53.214;6.556;2023-07-20T02:18:45;17.20;99.90
51908;DHT22;39320;53.214;6.556;2023-07-20T02:21:11;17.20;99.90
51908;DHT22;39320;53.214;6.556;2023-07-20T02:23:37;17.20;99.90
51908;DHT22;39320;53.214;6.556;2023-07-20T02:26:03;17.20;99.90
51908;DHT22;39320;53.214;6.556;2023-07-20T02:28:28;17.20;99.90
51908;DHT22;39320;53.214;6.556;2023-07-20T02:30:54;17.20;99.90
51908;DHT22;39320;53.214;6.556;2023-07-20T02:33:20;17.10;99.90
51908;DHT22;39320;53.214;6.556;2023-07-20T02:35:47;17.10;99.90
51908;DHT22;39320;53.214;6.556;2023-07-20T02:38:12;17.10;99.90
51908;DHT22;39320;53.214;6.556;2023-07-20T02:40:39;17.10;99.90
51908;DHT22;39320;53.214;6.556;2023-07-20T02:43:04;17.10;99.90
51908;DHT22;39320;53.214;6.556;2023-07-20T02:45:30;17.10;99.90
51908;DHT22;39320;53.214;6.556;2023-07-20T02:47:56;17.10;99.90
51908;DHT22;39320;53.214;6.556;2023-07-20T02:50:22;17.00;99.90
51908;DHT22;39320;53.214;6.556;2023-07-20T02:52:48;17.00;99.90
51908;DHT22;39320;53.214;6.556;2023-07-20T02:55:13;17.00;99.90
51908;DHT22;39320;53.214;6.556;2023-07-20T02:57:40;17.00;99.90
51908;DHT22;39320;53.214;6.556;2023-07-20T03:00:06;17.00;99.90
51908;DHT22;39320;53.214;6.556;2023-07-20T03:02:32;17.00;99.90
51908;DHT22;39320;53.214;6.556;2023-07-20T03:04:58;17.00;99.90
51908;DHT22;39320;53.214;6.556;2023-07-20T03:07:29;17.00;99.90
51908;DHT22;39320;53.214;6.556;2023-07-20T03:09:55;17.00;99.90
51908;DHT22;39320;53.214;6.556;2023-07-20T03:12:21;17.00;99.90
51908;DHT22;39320;53.214;6.556;2023-07-20T03:14:47;16.90;99.90
51908;DHT22;39320;53.214;6.556;2023-07-20T03:17:13;16.90;99.90
51908;DHT22;39320;53.214;6.556;2023-07-20T03:19:38;16.90;99.90
51908;DHT22;39320;53.214;6.556;2023-07-20T03:22:05;16.90;99.90
51908;DHT22;39320;53.214;6.556;2023-07-20T03:24:31;16.80;99.90
51908;DHT22;39320;53.214;6.556;2023-07-20T03:26:56;16.80;99.90
51908;DHT22;39320;53.214;6.556;2023-07-20T03:29:22;16.70;99.90
51908;DHT22;39320;53.214;6.556;2023-07-20T03:31:48;16.70;99.90
51908;DHT22;39320;53.214;6.556;2023-07-20T03:34:13;16.70;99.90
51908;DHT22;39320;53.214;6.556;2023-07-20T03:36:39;16.60;99.90
51908;DHT22;39320;53.214;6.556;2023-07-20T03:39:05;16.60;99.90
51908;DHT22;39320;53.214;6.556;2023-07-20T03:41:31;16.60;99.90
51908;DHT22;39320;53.214;6.556;2023-07-20T03:43:57;16.60;99.90
51908;DHT22;39320;53.214;6.556;2023-07-20T03:46:23;16.60;99.90
51908;DHT22;39320;53.214;6.556;2023-07-20T03:48:48;16.60;99.90
51908;DHT22;39320;53.214;6.556;2023-07-20T03:51:14;16.60;99.90
51908;DHT22;39320;53.214;6.556;2023-07-20T03:53:40;16.70;99.90
51908;DHT22;39320;53.214;6.556;2023-07-20T03:56:06;16.60;99.90
51908;DHT22;39320;53.214;6.556;2023-07-20T03:58:32;16.50;99.90
51908;DHT22;39320;53.214;6.556;2023-07-20T04:00:58;16.50;99.90
51908;DHT22;39320;53.214;6.556;2023-07-20T04:03:24;16.50;99.90
51908;DHT22;39320;53.214;6.556;2023-07-20T04:05:54;16.50;99.90
51908;DHT22;39320;53.214;6.556;2023-07-20T04:08:26;16.50;99.90
51908;DHT22;39320;53.214;6.556;2023-07-20T04:10:52;16.50;99.90
51908;DHT22;39320;53.214;6.556;2023-07-20T04:13:18;16.60;99.90
51908;DHT22;39320;53.214;6.556;2023-07-20T04:15:44;16.60;99.90
51908;DHT22;39320;53.214;6.556;2023-07-20T04:18:10;16.60;99.90
51908;DHT22;39320;53.214;6.556;2023-07-20T04:20:35;16.50;99.90
51908;DHT22;39320;53.214;6.556;2023-07-20T04:23:01;16.30;99.90
51908;DHT22;39320;53.214;6.556;2023-07-20T04:25:27;16.20;99.90
51908;DHT22;39320;53.214;6.556;2023-07-20T04:27:53;16.20;99.90
51908;DHT22;39320;53.214;6.556;2023-07-20T04:30:19;16.20;99.90
51908;DHT22;39320;53.214;6.556;2023-07-20T04:32:46;16.30;99.90
51908;DHT22;39320;53.214;6.556;2023-07-20T04:35:18;16.30;99.90
51908;DHT22;39320;53.214;6.556;2023-07-20T04:37:44;16.50;99.90
51908;DHT22;39320;53.214;6.556;2023-07-20T04:40:15;16.30;99.90
51908;DHT22;39320;53.214;6.556;2023-07-20T04:42:41;16.40;99.90
51908;DHT22;39320;53.214;6.556;2023-07-20T04:45:07;16.40;99.90
51908;DHT22;39320;53.214;6.556;2023-07-20T04:47:33;16.50;99.90
51908;DHT22;39320;53.214;6.556;2023-07-20T04:49:59;16.50;99.90
51908;DHT22;39320;53.214;6.556;2023-07-20T04:52:24;16.50;99.90
51908;DHT22;39320;53.214;6.556;2023-07-20T04:54:50;16.50;99.90
51908;DHT22;39320;53.214;6.556;2023-07-20T04:57:16;16.60;99.90
51908;DHT22;39320;53.214;6.556;2023-07-20T04:59:42;16.60;99.90
51908;DHT22;39320;53.214;6.556;2023-07-20T05:02:07;16.60;99.90
51908;DHT22;39320;53.214;6.556;2023-07-20T05:04:33;16.50;99.90
51908;DHT22;39320;53.214;6.556;2023-07-20T05:06:59;16.50;99.90
51908;DHT22;39320;53.214;6.556;2023-07-20T05:09:25;16.50;99.90
51908;DHT22;39320;53.214;6.556;2023-07-20T05:11:51;16.60;99.90
51908;DHT22;39320;53.214;6.556;2023-07-20T05:14:17;16.50;99.90
51908;DHT22;39320;53.214;6.556;2023-07-20T05:16:42;16.50;99.90
51908;DHT22;39320;53.214;6.556;2023-07-20T05:19:08;16.50;99.90
51908;DHT22;39320;53.214;6.556;2023-07-20T05:21:34;16.50;99.90
51908;DHT22;39320;53.214;6.556;2023-07-20T05:24:00;16.60;99.90
51908;DHT22;39320;53.214;6.556;2023-07-20T05:26:25;16.60;99.90
51908;DHT22;39320;53.214;6.556;2023-07-20T05:28:51;16.70;99.90
51908;DHT22;39320;53.214;6.556;2023-07-20T05:31:17;16.70;99.90
51908;DHT22;39320;53.214;6.556;2023-07-20T05:33:42;16.80;99.90
51908;DHT22;39320;53.214;6.556;2023-07-20T05:36:08;16.80;99.90
51908;DHT22;39320;53.214;6.556;2023-07-20T05:38:34;16.90;99.90
51908;DHT22;39320;53.214;6.556;2023-07-20T05:41:00;17.00;99.90
51908;DHT22;39320;53.214;6.556;2023-07-20T05:43:29;17.00;99.90
51908;DHT22;39320;53.214;6.556;2023-07-20T05:45:55;17.00;99.90
51908;DHT22;39320;53.214;6.556;2023-07-20T05:48:21;17.10;99.90
51908;DHT22;39320;53.214;6.556;2023-07-20T05:50:47;17.00;99.90
51908;DHT22;39320;53.214;6.556;2023-07-20T05:53:13;17.10;99.90
51908;DHT22;39320;53.214;6.556;2023-07-20T05:55:38;17.10;99.90
51908;DHT22;39320;53.214;6.556;2023-07-20T05:58:05;17.10;99.90
51908;DHT22;39320;53.214;6.556;2023-07-20T06:00:31;17.10;99.90
51908;DHT22;39320;53.214;6.556;2023-07-20T06:02:57;17.10;99.90
51908;DHT22;39320;53.214;6.556;2023-07-20T06:05:23;17.10;99.90
51908;DHT22;39320;53.214;6.556;2023-07-20T06:07:49;17.20;99.90
51908;DHT22;39320;53.214;6.556;2023-07-20T06:10:15;17.20;99.90
51908;DHT22;39320;53.214;6.556;2023-07-20T06:12:41;17.20;99.90
51908;DHT22;39320;53.214;6.556;2023-07-20T06:15:24;17.10;99.90
51908;DHT22;39320;53.214;6.556;2023-07-20T06:17:51;17.20;99.90
51908;DHT22;39320;53.214;6.556;2023-07-20T06:20:17;17.20;99.90
51908;DHT22;39320;53.214;6.556;2023-07-20T06:22:44;17.20;99.90
51908;DHT22;39320;53.214;6.556;2023-07-20T06:25:11;17.30;99.90
51908;DHT22;39320;53.214;6.556;2023-07-20T06:27:36;17.40;99.90
51908;DHT22;39320;53.214;6.556;2023-07-20T06:30:02;17.30;99.90
51908;DHT22;39320;53.214;6.556;2023-07-20T06:32:28;17.30;99.90
51908;DHT22;39320;53.214;6.556;2023-07-20T06:34:54;17.40;99.90
51908;DHT22;39320;53.214;6.556;2023-07-20T06:37:20;17.40;99.90
51908;DHT22;39320;53.214;6.556;2023-07-20T06:39:45;17.40;99.90
51908;DHT22;39320;53.214;6.556;2023-07-20T06:42:11;17.40;99.90
51908;DHT22;39320;53.214;6.556;2023-07-20T06:44:37;17.40;99.90
51908;DHT22;39320;53.214;6.556;2023-07-20T06:47:03;17.40;99.90
51908;DHT22;39320;53.214;6.556;2023-07-20T06:49:29;17.40;99.90
51908;DHT22;39320;53.214;6.556;2023-07-20T06:51:55;17.50;99.90
51908;DHT22;39320;53.214;6.556;2023-07-20T06:54:20;17.50;99.90
51908;DHT22;39320;53.214;6.556;2023-07-20T06:56:46;17.50;99.90
51908;DHT22;39320;53.214;6.556;2023-07-20T06:59:12;17.50;99.90
51908;DHT22;39320;53.214;6.556;2023-07-20T07:01:38;17.50;99.90
51908;DHT22;39320;53.214;6.556;2023-07-20T07:04:04;17.50;99.90
51908;DHT22;39320;53.214;6.556;2023-07-20T07:06:31;17.50;99.90
51908;DHT22;39320;53.214;6.556;2023-07-20T07:08:57;17.50;99.90
51908;DHT22;39320;53.214;6.556;2023-07-20T07:11:23;17.50;99.90
51908;DHT22;39320;53.214;6.556;2023-07-20T07:13:49;17.50;99.90
51908;DHT22;39320;53.214;6.556;2023-07-20T07:16:17;17.50;99.90
51908;DHT22;39320;53.214;6.556;2023-07-20T07:18:45;17.40;99.90
51908;DHT22;39320;53.214;6.556;2023-07-20T07:21:11;17.40;99.90
51908;DHT22;39320;53.214;6.556;2023-07-20T07:23:39;17.40;99.90
51908;DHT22;39320;53.214;6.556;2023-07-20T07:26:05;17.30;99.90
51908;DHT22;39320;53.214;6.556;2023-07-20T07:28:31;17.40;99.90
51908;DHT22;39320;53.214;6.556;2023-07-20T07:30:59;17.50;99.90
51908;DHT22;39320;53.214;6.556;2023-07-20T07:33:26;17.60;99.90
51908;DHT22;39320;53.214;6.556;2023-07-20T07:35:52;17.60;99.90
51908;DHT22;39320;53.214;6.556;2023-07-20T07:38:18;17.60;99.90
51908;DHT22;39320;53.214;6.556;2023-07-20T07:40:44;17.60;99.90
51908;DHT22;39320;53.214;6.556;2023-07-20T07:43:10;17.60;99.90
51908;DHT22;39320;53.214;6.556;2023-07-20T07:45:37;17.60;99.90
51908;DHT22;39320;53.214;6.556;2023-07-20T07:48:04;17.50;99.90
51908;DHT22;39320;53.214;6.556;2023-07-20T07:50:30;17.50;99.90
51908;DHT22;39320;53.214;6.556;2023-07-20T07:52:56;17.50;99.90
51908;DHT22;39320;53.214;6.556;2023-07-20T07:55:22;17.60;99.90
51908;DHT22;39320;53.214;6.556;2023-07-20T07:57:48;17.70;99.90
51908;DHT22;39320;53.214;6.556;2023-07-20T08:00:14;17.80;99.90
51908;DHT22;39320;53.214;6.556;2023-07-20T08:02:42;17.90;99.90
51908;DHT22;39320;53.214;6.556;2023-07-20T08:05:08;17.80;99.90
51908;DHT22;39320;53.214;6.556;2023-07-20T08:07:34;17.90;99.90
51908;DHT22;39320;53.214;6.556;2023-07-20T08:10:00;17.80;99.90
51908;DHT22;39320;53.214;6.556;2023-07-20T08:12:26;17.80;99.90
51908;DHT22;39320;53.214;6.556;2023-07-20T08:14:52;17.80;99.90
51908;DHT22;39320;53.214;6.556;2023-07-20T08:17:19;17.80;99.90
51908;DHT22;39320;53.214;6.556;2023-07-20T08:19:46;17.80;99.90
51908;DHT22;39320;53.214;6.556;2023-07-20T08:22:12;17.70;99.90
51908;DHT22;39320;53.214;6.556;2023-07-20T08:24:43;17.70;99.90
51908;DHT22;39320;53.214;6.556;2023-07-20T08:27:10;17.70;99.90
51908;DHT22;39320;53.214;6.556;2023-07-20T08:29:36;17.70;99.90
51908;DHT22;39320;53.214;6.556;2023-07-20T08:32:04;17.80;99.90
51908;DHT22;39320;53.214;6.556;2023-07-20T08:34:30;17.80;99.90
51908;DHT22;39320;53.214;6.556;2023-07-20T08:36:57;17.90;99.90
51908;DHT22;39320;53.214;6.556;2023-07-20T08:39:23;18.00;99.90
51908;DHT22;39320;53.214;6.556;2023-07-20T08:41:49;18.10;99.90
51908;DHT22;39320;53.214;6.556;2023-07-20T08:44:15;18.10;99.90
51908;DHT22;39320;53.214;6.556;2023-07-20T08:46:41;18.10;99.90
51908;DHT22;39320;53.214;6.556;2023-07-20T08:49:08;18.10;99.90
51908;DHT22;39320;53.214;6.556;2023-07-20T08:51:35;18.10;99.90
51908;DHT22;39320;53.214;6.556;2023-07-20T08:54:01;18.20;99.90
51908;DHT22;39320;53.214;6.556;2023-07-20T08:56:27;18.20;99.90
51908;DHT22;39320;53.214;6.556;2023-07-20T08:58:54;18.40;99.90
51908;DHT22;39320;53.214;6.556;2023-07-20T09:01:21;18.40;99.90
51908;DHT22;39320;53.214;6.556;2023-07-20T09:03:48;18.50;99.90
51908;DHT22;39320;53.214;6.556;2023-07-20T09:06:14;18.50;99.90
51908;DHT22;39320;53.214;6.556;2023-07-20T09:08:41;18.60;99.90
51908;DHT22;39320;53.214;6.556;2023-07-20T09:11:07;18.60;99.90
51908;DHT22;39320;53.214;6.556;2023-07-20T09:13:34;18.50;99.90
51908;DHT22;39320;53.214;6.556;2023-07-20T09:16:00;18.50;99.90
51908;DHT22;39320;53.214;6.556;2023-07-20T09:18:29;18.40;99.90
51908;DHT22;39320;53.214;6.556;2023-07-20T09:21:05;18.30;99.90
51908;DHT22;39320;53.214;6.556;2023-07-20T09:23:32;18.20;99.90
51908;DHT22;39320;53.214;6.556;2023-07-20T09:25:58;18.20;99.90
51908;DHT22;39320;53.214;6.556;2023-07-20T09:28:24;18.20;99.90
51908;DHT22;39320;53.214;6.556;2023-07-20T09:30:50;18.30;99.90
51908;DHT22;39320;53.214;6.556;2023-07-20T09:33:22;18.30;99.90
51908;DHT22;39320;53.214;6.556;2023-07-20T09:35:48;18.30;99.90
51908;DHT22;39320;53.214;6.556;2023-07-20T09:38:15;18.20;99.90
51908;DHT22;39320;53.214;6.556;2023-07-20T09:40:42;18.20;99.90
51908;DHT22;39320;53.214;6.556;2023-07-20T09:43:08;18.20;99.90
51908;DHT22;39320;53.214;6.556;2023-07-20T09:45:42;18.30;99.90
51908;DHT22;39320;53.214;6.556;2023-07-20T09:48:09;18.30;99.90
51908;DHT22;39320;53.214;6.556;2023-07-20T09:50:42;18.30;99.90
51908;DHT22;39320;53.214;6.556;2023-07-20T09:53:11;18.40;99.90
51908;DHT22;39320;53.214;6.556;2023-07-20T09:55:41;18.40;99.90
51908;DHT22;39320;53.214;6.556;2023-07-20T09:58:11;18.50;99.90
51908;DHT22;39320;53.214;6.556;2023-07-20T10:00:38;18.50;99.90
51908;DHT22;39320;53.214;6.556;2023-07-20T10:03:06;18.50;99.90
51908;DHT22;39320;53.214;6.556;2023-07-20T10:05:33;18.50;99.90
51908;DHT22;39320;53.214;6.556;2023-07-20T10:08:02;18.60;99.90
51908;DHT22;39320;53.214;6.556;2023-07-20T10:10:32;18.50;99.90
51908;DHT22;39320;53.214;6.556;2023-07-20T10:13:01;18.50;99.90
51908;DHT22;39320;53.214;6.556;2023-07-20T10:15:39;18.50;99.90
51908;DHT22;39320;53.214;6.556;2023-07-20T10:18:12;18.50;99.90
51908;DHT22;39320;53.214;6.556;2023-07-20T10:20:40;18.50;99.90
51908;DHT22;39320;53.214;6.556;2023-07-20T10:23:08;18.50;99.90
51908;DHT22;39320;53.214;6.556;2023-07-20T10:25:34;18.50;99.90
51908;DHT22;39320;53.214;6.556;2023-07-20T10:28:07;18.50;99.90
51908;DHT22;39320;53.214;6.556;2023-07-20T10:33:47;18.60;99.90
51908;DHT22;39320;53.214;6.556;2023-07-20T10:36:16;18.50;99.90
51908;DHT22;39320;53.214;6.556;2023-07-20T10:38:54;18.50;99.90
51908;DHT22;39320;53.214;6.556;2023-07-20T10:41:28;18.50;99.90
51908;DHT22;39320;53.214;6.556;2023-07-20T10:44:04;18.50;99.90
51908;DHT22;39320;53.214;6.556;2023-07-20T10:49:08;18.70;99.90
51908;DHT22;39320;53.214;6.556;2023-07-20T10:51:45;18.70;99.90
51908;DHT22;39320;53.214;6.556;2023-07-20T10:56:47;18.60;99.90
51908;DHT22;39320;53.214;6.556;2023-07-20T10:59:36;18.60;99.90
51908;DHT22;39320;53.214;6.556;2023-07-20T11:02:10;18.70;99.90
51908;DHT22;39320;53.214;6.556;2023-07-20T11:04:46;18.70;99.90
51908;DHT22;39320;53.214;6.556;2023-07-20T11:07:16;18.80;99.90
51908;DHT22;39320;53.214;6.556;2023-07-20T11:09:43;18.90;99.90
51908;DHT22;39320;53.214;6.556;2023-07-20T11:12:14;18.90;99.90
51908;DHT22;39320;53.214;6.556;2023-07-20T11:14:46;19.00;99.90
51908;DHT22;39320;53.214;6.556;2023-07-20T11:17:18;19.10;99.90
51908;DHT22;39320;53.214;6.556;2023-07-20T11:19:55;19.10;99.90
51908;DHT22;39320;53.214;6.556;2023-07-20T11:22:22;19.00;99.90
51908;DHT22;39320;53.214;6.556;2023-07-20T11:24:48;19.00;99.90
51908;DHT22;39320;53.214;6.556;2023-07-20T11:27:17;19.10;99.90
51908;DHT22;39320;53.214;6.556;2023-07-20T11:29:48;19.00;99.90
51908;DHT22;39320;53.214;6.556;2023-07-20T11:32:22;19.00;99.90
51908;DHT22;39320;53.214;6.556;2023-07-20T11:34:48;19.10;99.90
51908;DHT22;39320;53.214;6.556;2023-07-20T11:37:15;19.10;99.90
51908;DHT22;39320;53.214;6.556;2023-07-20T11:39:42;19.10;99.90
51908;DHT22;39320;53.214;6.556;2023-07-20T11:42:08;19.10;99.90
51908;DHT22;39320;53.214;6.556;2023-07-20T11:44:34;19.20;99.90
51908;DHT22;39320;53.214;6.556;2023-07-20T11:47:02;19.30;99.90
51908;DHT22;39320;53.214;6.556;2023-07-20T11:49:29;19.30;99.90
51908;DHT22;39320;53.214;6.556;2023-07-20T11:51:56;19.30;99.90
51908;DHT22;39320;53.214;6.556;2023-07-20T11:54:23;19.30;99.90
51908;DHT22;39320;53.214;6.556;2023-07-20T11:56:56;19.30;99.90
51908;DHT22;39320;53.214;6.556;2023-07-20T11:59:22;19.30;99.90
51908;DHT22;39320;53.214;6.556;2023-07-20T12:01:48;19.40;99.90
51908;DHT22;39320;53.214;6.556;2023-07-20T12:04:14;19.30;99.90
51908;DHT22;39320;53.214;6.556;2023-07-20T12:06:40;19.30;99.90
51908;DHT22;39320;53.214;6.556;2023-07-20T12:09:06;19.30;99.90
51908;DHT22;39320;53.214;6.556;2023-07-20T12:11:39;19.30;99.90
51908;DHT22;39320;53.214;6.556;2023-07-20T12:14:08;19.30;99.90
51908;DHT22;39320;53.214;6.556;2023-07-20T12:16:35;19.20;99.90
51908;DHT22;39320;53.214;6.556;2023-07-20T12:19:07;19.10;99.90
51908;DHT22;39320;53.214;6.556;2023-07-20T12:21:38;19.10;99.90
51908;DHT22;39320;53.214;6.556;2023-07-20T12:24:06;19.00;99.90
51908;DHT22;39320;53.214;6.556;2023-07-20T12:26:33;19.00;99.90
51908;DHT22;39320;53.214;6.556;2023-07-20T12:28:59;19.00;99.90
51908;DHT22;39320;53.214;6.556;2023-07-20T12:31:27;19.10;99.90
51908;DHT22;39320;53.214;6.556;2023-07-20T12:33:54;19.00;99.90
51908;DHT22;39320;53.214;6.556;2023-07-20T12:36:22;19.00;99.90
51908;DHT22;39320;53.214;6.556;2023-07-20T12:38:48;18.90;99.90
51908;DHT22;39320;53.214;6.556;2023-07-20T12:41:14;18.90;99.90
51908;DHT22;39320;53.214;6.556;2023-07-20T12:43:44;18.90;99.90
51908;DHT22;39320;53.214;6.556;2023-07-20T12:46:11;18.90;99.90
51908;DHT22;39320;53.214;6.556;2023-07-20T12:48:40;18.90;99.90
51908;DHT22;39320;53.214;6.556;2023-07-20T12:51:09;18.80;99.90
51908;DHT22;39320;53.214;6.556;2023-07-20T12:53:36;18.70;99.90
51908;DHT22;39320;53.214;6.556;2023-07-20T12:56:02;18.70;99.90
51908;DHT22;39320;53.214;6.556;2023-07-20T12:58:28;18.60;99.90
51908;DHT22;39320;53.214;6.556;2023-07-20T13:00:54;18.60;99.90
51908;DHT22;39320;53.214;6.556;2023-07-20T13:03:20;18.50;99.90
51908;DHT22;39320;53.214;6.556;2023-07-20T13:05:47;18.50;99.90
51908;DHT22;39320;53.214;6.556;2023-07-20T13:08:13;18.50;99.90
51908;DHT22;39320;53.214;6.556;2023-07-20T13:10:39;18.60;99.90
51908;DHT22;39320;53.214;6.556;2023-07-20T13:13:05;18.70;99.90
51908;DHT22;39320;53.214;6.556;2023-07-20T13:15:32;18.60;99.90
51908;DHT22;39320;53.214;6.556;2023-07-20T13:17:58;18.70;99.90
51908;DHT22;39320;53.214;6.556;2023-07-20T13:20:25;18.80;99.90
51908;DHT22;39320;53.214;6.556;2023-07-20T13:22:51;18.70;99.90
51908;DHT22;39320;53.214;6.556;2023-07-20T13:25:19;18.70;99.90
51908;DHT22;39320;53.214;6.556;2023-07-20T13:27:44;18.70;99.90
51908;DHT22;39320;53.214;6.556;2023-07-20T13:30:11;18.70;99.90
51908;DHT22;39320;53.214;6.556;2023-07-20T13:32:42;18.70;99.90
51908;DHT22;39320;53.214;6.556;2023-07-20T13:35:09;18.70;99.90
51908;DHT22;39320;53.214;6.556;2023-07-20T13:37:35;18.70;99.90
51908;DHT22;39320;53.214;6.556;2023-07-20T13:40:01;18.60;99.90
51908;DHT22;39320;53.214;6.556;2023-07-20T13:42:32;18.60;99.90
51908;DHT22;39320;53.214;6.556;2023-07-20T13:44:57;18.70;99.90
51908;DHT22;39320;53.214;6.556;2023-07-20T13:47:23;18.80;99.90
51908;DHT22;39320;53.214;6.556;2023-07-20T13:49:49;18.90;99.90
51908;DHT22;39320;53.214;6.556;2023-07-20T13:52:15;19.00;99.90
51908;DHT22;39320;53.214;6.556;2023-07-20T13:54:41;19.20;99.90
51908;DHT22;39320;53.214;6.556;2023-07-20T13:57:07;19.40;99.90
51908;DHT22;39320;53.214;6.556;2023-07-20T13:59:32;19.40;99.90
51908;DHT22;39320;53.214;6.556;2023-07-20T14:01:58;19.50;99.90
51908;DHT22;39320;53.214;6.556;2023-07-20T14:04:24;19.60;99.90
51908;DHT22;39320;53.214;6.556;2023-07-20T14:06:50;19.80;99.90
51908;DHT22;39320;53.214;6.556;2023-07-20T14:09:15;19.80;99.90
51908;DHT22;39320;53.214;6.556;2023-07-20T14:11:41;19.90;99.90
51908;DHT22;39320;53.214;6.556;2023-07-20T14:14:07;19.90;99.90
51908;DHT22;39320;53.214;6.556;2023-07-20T14:16:33;19.90;99.90
51908;DHT22;39320;53.214;6.556;2023-07-20T14:18:58;19.90;99.90
51908;DHT22;39320;53.214;6.556;2023-07-20T14:21:24;19.90;99.90
51908;DHT22;39320;53.214;6.556;2023-07-20T14:23:51;19.90;99.90
51908;DHT22;39320;53.214;6.556;2023-07-20T14:26:18;19.90;99.90
51908;DHT22;39320;53.214;6.556;2023-07-20T14:28:44;20.00;99.90
51908;DHT22;39320;53.214;6.556;2023-07-20T14:31:10;20.10;99.90
51908;DHT22;39320;53.214;6.556;2023-07-20T14:33:36;20.10;99.90
51908;DHT22;39320;53.214;6.556;2023-07-20T14:36:02;20.20;99.90
51908;DHT22;39320;53.214;6.556;2023-07-20T14:38:30;20.30;99.90
51908;DHT22;39320;53.214;6.556;2023-07-20T14:40:56;20.30;99.90
51908;DHT22;39320;53.214;6.556;2023-07-20T14:43:22;20.40;99.90
51908;DHT22;39320;53.214;6.556;2023-07-20T14:45:47;20.50;99.90
51908;DHT22;39320;53.214;6.556;2023-07-20T14:48:13;20.50;99.90
51908;DHT22;39320;53.214;6.556;2023-07-20T14:50:39;20.50;99.90
51908;DHT22;39320;53.214;6.556;2023-07-20T14:53:05;20.30;99.90
51908;DHT22;39320;53.214;6.556;2023-07-20T14:55:30;20.20;99.90
51908;DHT22;39320;53.214;6.556;2023-07-20T14:57:56;20.10;99.90
51908;DHT22;39320;53.214;6.556;2023-07-20T15:00:22;20.20;99.90
51908;DHT22;39320;53.214;6.556;2023-07-20T15:02:48;20.20;99.90
51908;DHT22;39320;53.214;6.556;2023-07-20T15:05:23;20.30;99.90
51908;DHT22;39320;53.214;6.556;2023-07-20T15:07:50;20.40;99.90
51908;DHT22;39320;53.214;6.556;2023-07-20T15:10:16;20.40;99.90
51908;DHT22;39320;53.214;6.556;2023-07-20T15:12:42;20.50;99.90
51908;DHT22;39320;53.214;6.556;2023-07-20T15:15:10;20.50;99.90
51908;DHT22;39320;53.214;6.556;2023-07-20T15:17:37;20.50;99.90
51908;DHT22;39320;53.214;6.556;2023-07-20T15:20:05;20.60;99.90
51908;DHT22;39320;53.214;6.556;2023-07-20T15:22:32;20.50;99.90
51908;DHT22;39320;53.214;6.556;2023-07-20T15:24:58;20.40;99.90
51908;DHT22;39320;53.214;6.556;2023-07-20T15:27:24;20.40;99.90
51908;DHT22;39320;53.214;6.556;2023-07-20T15:29:50;20.30;99.90
51908;DHT22;39320;53.214;6.556;2023-07-20T15:32:18;20.30;99.90
51908;DHT22;39320;53.214;6.556;2023-07-20T15:34:44;20.20;99.90
51908;DHT22;39320;53.214;6.556;2023-07-20T15:37:10;20.10;99.90
51908;DHT22;39320;53.214;6.556;2023-07-20T15:39:37;19.90;99.90
51908;DHT22;39320;53.214;6.556;2023-07-20T15:42:03;19.90;99.90
51908;DHT22;39320;53.214;6.556;2023-07-20T15:44:29;19.90;99.90
51908;DHT22;39320;53.214;6.556;2023-07-20T15:46:55;20.10;99.90
51908;DHT22;39320;53.214;6.556;2023-07-20T15:49:21;20.20;99.90
51908;DHT22;39320;53.214;6.556;2023-07-20T15:51:47;20.20;99.90